Weikert, Pennsylvania
Current Conditions -  °F | °C
As of 2:53 AM on Monday 26 Jan 2015 (Local Time) from KSEG Reporting Station
Moderate Snow Moderate Snow  
Wind Chill: 11°   Ceiling: 800
Heat Index: 21°   Visibility: 0.5mi
Dew Point: 17°   Wind: 8mph
Humidity: 85%   Direction: 30°NNE
Pressure: 29.94"   Gusts: NA
Location:  40.86°N, 77.3°W
Report Text: KSEG 260753Z AUTO 03007KT 1/2SM SN FZFG VV008 M06/M08 A2994 RMK AO2 SLP145 P0003 T10611083
Loading
Personal Weather Stations






























Interactive Weather Map New forecast layout! Learn more

10-Day Weather Forecast

Advertisements
Track Severe Weather on mobile